createdAt,value
2022-12-17T00:00:45.318Z,-6.43
2022-12-17T00:06:16.428Z,-6.48
2022-12-17T00:11:38.880Z,-6.45
2022-12-17T00:17:00.825Z,-6.38
2022-12-17T00:22:30.762Z,-6.35
2022-12-17T00:27:52.914Z,-6.37
2022-12-17T00:33:15.786Z,-6.34
2022-12-17T00:38:38.653Z,-6.40
2022-12-17T00:44:00.906Z,-6.46
2022-12-17T00:49:23.384Z,-6.52
2022-12-17T00:54:45.621Z,-6.46
2022-12-17T01:00:07.776Z,-6.44
2022-12-17T01:05:31.053Z,-6.43
2022-12-17T01:10:53.307Z,-6.36
2022-12-17T01:16:23.911Z,-6.31
2022-12-17T01:21:45.912Z,-6.21
2022-12-17T01:27:07.955Z,-6.15
2022-12-17T01:32:30.317Z,-6.14
2022-12-17T01:37:52.568Z,-6.08
2022-12-17T01:43:14.413Z,-6.07
2022-12-17T01:48:37.082Z,-6.10
2022-12-17T01:54:25.649Z,-6.09
2022-12-17T02:00:01.435Z,-6.10
2022-12-17T02:05:23.880Z,-6.19
2022-12-17T02:10:58.730Z,-6.12
2022-12-17T02:16:27.703Z,-6.17
2022-12-17T02:21:52.558Z,-6.28
2022-12-17T02:27:20.039Z,-6.32
2022-12-17T02:32:42.805Z,-6.25
2022-12-17T02:38:23.391Z,-6.14
2022-12-17T02:43:46.359Z,-6.21
2022-12-17T02:49:08.820Z,-6.24
2022-12-17T02:54:31.072Z,-6.14
2022-12-17T02:59:53.332Z,-6.15
2022-12-17T03:05:43.577Z,-6.11
2022-12-17T03:10:59.648Z,-6.04
2022-12-17T03:16:52.975Z,-5.96
2022-12-17T03:22:15.804Z,-6.01
2022-12-17T03:27:38.158Z,-6.07
2022-12-17T03:33:00.208Z,-6.13
2022-12-17T03:38:27.074Z,-6.16
2022-12-17T03:43:49.537Z,-6.20
2022-12-17T03:49:11.989Z,-6.24
2022-12-17T03:54:34.140Z,-6.18
2022-12-17T03:59:55.991Z,-6.21
2022-12-17T04:05:20.280Z,-6.21
2022-12-17T04:10:42.647Z,-6.20
2022-12-17T04:16:04.962Z,-6.24
2022-12-17T04:21:27.155Z,-6.31
2022-12-17T04:26:49.514Z,-6.40
2022-12-17T04:32:11.459Z,-6.49
2022-12-17T04:37:33.414Z,-6.54
2022-12-17T04:42:55.766Z,-6.48
2022-12-17T04:48:23.247Z,-6.43
2022-12-17T04:53:45.499Z,-6.37
2022-12-17T04:59:07.650Z,-6.37
2022-12-17T05:04:29.497Z,-6.34
2022-12-17T05:09:51.853Z,-6.33
2022-12-17T05:15:13.696Z,-6.37
2022-12-17T05:20:35.950Z,-6.36
2022-12-17T05:25:58.206Z,-6.29
2022-12-17T05:31:21.117Z,-6.08
2022-12-17T05:36:44.156Z,-6.10
2022-12-17T05:42:06.713Z,-6.07
2022-12-17T05:47:28.761Z,-6.02
2022-12-17T05:52:50.710Z,-5.94
2022-12-17T05:58:24.030Z,-5.82
2022-12-17T06:03:46.171Z,-5.76
2022-12-17T06:09:08.531Z,-5.77
2022-12-17T06:14:30.889Z,-5.69
2022-12-17T06:19:52.939Z,-5.66
2022-12-17T06:25:15.194Z,-5.68
2022-12-17T06:30:37.448Z,-5.77
2022-12-17T06:35:59.294Z,-5.82
2022-12-17T06:41:22.266Z,-5.84
2022-12-17T06:46:44.083Z,-5.82
2022-12-17T06:52:06.472Z,-5.78
2022-12-17T06:57:28.730Z,-5.79
2022-12-17T07:02:51.440Z,-5.87
2022-12-17T07:08:18.455Z,-5.92
2022-12-17T07:13:41.017Z,-5.99
2022-12-17T07:19:02.864Z,-5.92
2022-12-17T07:24:25.218Z,-5.88
2022-12-17T07:29:47.168Z,-5.89
2022-12-17T07:35:09.530Z,-5.86
2022-12-17T07:40:31.983Z,-5.86
2022-12-17T07:45:53.979Z,-5.84
2022-12-17T07:51:16.799Z,-5.85
2022-12-17T07:56:39.611Z,-5.83
2022-12-17T08:02:02.163Z,-5.81
2022-12-17T08:07:24.179Z,-5.83
2022-12-17T08:12:47.405Z,-5.76
2022-12-17T08:18:11.349Z,-5.68
2022-12-17T08:23:33.990Z,-5.48
2022-12-17T08:28:56.372Z,-5.41
2022-12-17T08:34:19.241Z,-5.39
2022-12-17T08:39:41.802Z,-5.27
2022-12-17T08:45:04.571Z,-5.07
2022-12-17T08:50:27.336Z,-4.95
2022-12-17T08:55:49.694Z,-4.87
2022-12-17T09:01:11.714Z,-4.84
2022-12-17T09:06:38.943Z,-4.76
2022-12-17T09:12:02.295Z,-4.73
2022-12-17T09:17:44.515Z,-4.67
2022-12-17T09:23:06.873Z,-4.63
2022-12-17T09:28:29.639Z,-4.58
2022-12-17T09:33:53.052Z,-4.49
2022-12-17T09:39:16.504Z,-4.34
2022-12-17T09:45:10.405Z,-4.25
2022-12-17T09:50:35.011Z,-4.17
2022-12-17T09:56:06.585Z,-4.08
2022-12-17T10:01:55.277Z,-4.02
2022-12-17T10:07:17.819Z,-3.95
2022-12-17T10:12:40.587Z,-3.92
2022-12-17T10:18:03.051Z,-3.85
2022-12-17T10:23:52.443Z,-3.76
2022-12-17T10:29:28.720Z,-3.68
2022-12-17T10:34:58.245Z,-3.64
2022-12-17T10:40:37.092Z,-3.62
2022-12-17T10:45:59.471Z,-3.55
2022-12-17T10:51:22.829Z,-3.48
2022-12-17T10:56:46.108Z,-3.38
2022-12-17T11:02:17.472Z,-3.39
2022-12-17T11:07:48.023Z,-3.32
2022-12-17T11:13:14.680Z,-3.22
2022-12-17T11:18:45.241Z,-3.23
2022-12-17T11:24:11.581Z,-3.27
2022-12-17T11:29:33.733Z,-3.28
2022-12-17T11:36:07.771Z,-3.18
2022-12-17T11:41:35.352Z,-3.07
2022-12-17T11:47:11.441Z,-3.00
2022-12-17T11:52:40.444Z,-2.96
2022-12-17T11:58:14.169Z,-2.86
2022-12-17T12:03:49.636Z,-2.84
2022-12-17T12:09:30.019Z,-2.81
2022-12-17T12:14:56.771Z,-2.66
2022-12-17T12:20:35.214Z,-2.57
2022-12-17T12:26:14.870Z,-2.53
2022-12-17T12:31:56.877Z,-2.55
2022-12-17T12:37:22.111Z,-2.49
2022-12-17T12:42:55.427Z,-2.31
2022-12-17T12:48:48.605Z,-2.24
2022-12-17T12:54:18.030Z,-2.27
2022-12-17T12:59:49.194Z,-2.17
2022-12-17T13:05:13.391Z,-1.98
2022-12-17T13:10:30.122Z,-1.97
2022-12-17T13:15:41.517Z,-2.04
2022-12-17T13:20:56.195Z,-2.12
2022-12-17T13:26:42.821Z,-2.34
2022-12-17T13:32:01.648Z,-2.53
2022-12-17T13:37:14.226Z,-2.69
2022-12-17T13:42:29.621Z,-2.82
2022-12-17T13:47:36.232Z,-2.81
2022-12-17T13:52:39.410Z,-2.77
2022-12-17T13:57:46.633Z,-2.73
2022-12-17T14:02:50.836Z,-2.75
2022-12-17T14:07:54.882Z,-2.83
2022-12-17T14:13:14.979Z,-3.04
2022-12-17T14:18:21.155Z,-3.18
2022-12-17T14:23:29.635Z,-3.26
2022-12-17T14:28:48.700Z,-3.30
2022-12-17T14:34:09.794Z,-3.33
2022-12-17T14:39:23.037Z,-3.31
2022-12-17T14:44:28.913Z,-3.33
2022-12-17T14:49:32.244Z,-3.36
2022-12-17T14:54:35.639Z,-3.33
2022-12-17T14:59:39.662Z,-3.26
2022-12-17T15:04:42.869Z,-3.18
2022-12-17T15:09:46.180Z,-3.17
2022-12-17T15:14:49.697Z,-3.20
2022-12-17T15:19:56.212Z,-3.18
2022-12-17T15:24:59.798Z,-3.17
2022-12-17T15:30:04.132Z,-3.15
2022-12-17T15:35:08.338Z,-3.15
2022-12-17T15:40:12.223Z,-3.19
2022-12-17T15:45:15.704Z,-3.21
2022-12-17T15:50:19.153Z,-3.31
2022-12-17T15:55:22.635Z,-3.34
2022-12-17T16:00:25.947Z,-3.43
2022-12-17T16:05:29.462Z,-3.47
2022-12-17T16:10:32.768Z,-3.56
2022-12-17T16:15:36.519Z,-3.70
2022-12-17T16:20:39.709Z,-3.77
2022-12-17T16:25:43.931Z,-3.78
2022-12-17T16:30:58.416Z,-3.72
2022-12-17T16:36:02.530Z,-3.64
2022-12-17T16:41:05.944Z,-3.56
2022-12-17T16:46:35.354Z,-3.50
2022-12-17T16:51:39.642Z,-3.43
2022-12-17T16:56:43.421Z,-3.37
2022-12-17T17:01:49.671Z,-3.33
2022-12-17T17:06:55.873Z,-3.31
2022-12-17T17:11:59.504Z,-3.22
2022-12-17T17:17:02.704Z,-3.18
2022-12-17T17:22:06.116Z,-3.15
2022-12-17T17:27:09.531Z,-3.12
2022-12-17T17:32:13.728Z,-3.14
2022-12-17T17:37:17.894Z,-3.10
2022-12-17T17:42:21.101Z,-3.12
2022-12-17T17:47:24.412Z,-3.12
2022-12-17T17:52:27.927Z,-3.18
2022-12-17T17:57:31.340Z,-3.28
2022-12-17T18:02:34.842Z,-3.46
2022-12-17T18:07:38.575Z,-3.56
2022-12-17T18:13:01.035Z,-3.68
2022-12-17T18:18:05.541Z,-3.69
2022-12-17T18:23:11.138Z,-3.64
2022-12-17T18:28:14.654Z,-3.69
2022-12-17T18:33:18.066Z,-3.69
2022-12-17T18:38:21.480Z,-3.67
2022-12-17T18:43:24.798Z,-3.64
2022-12-17T18:48:28.210Z,-3.70
2022-12-17T18:53:31.618Z,-3.71
2022-12-17T18:58:35.239Z,-3.63
2022-12-17T19:03:39.059Z,-3.63
2022-12-17T19:08:42.571Z,-3.58
2022-12-17T19:13:47.213Z,-3.57
2022-12-17T19:18:57.797Z,-3.64
2022-12-17T19:24:04.414Z,-3.71
2022-12-17T19:29:08.741Z,-3.73
2022-12-17T19:34:19.441Z,-3.75
2022-12-17T19:39:23.245Z,-3.73
2022-12-17T19:44:27.493Z,-3.70
2022-12-17T19:49:35.477Z,-3.75
2022-12-17T19:54:40.018Z,-3.75
2022-12-17T19:59:43.720Z,-3.77
2022-12-17T20:04:47.662Z,-3.79
2022-12-17T20:09:51.078Z,-3.76
2022-12-17T20:14:54.486Z,-3.80
2022-12-17T20:19:58.134Z,-3.79
2022-12-17T20:25:05.169Z,-3.71
2022-12-17T20:30:09.028Z,-3.72
2022-12-17T20:35:12.476Z,-3.71
2022-12-17T20:40:15.856Z,-3.77
2022-12-17T20:45:19.372Z,-3.75
2022-12-17T20:50:22.884Z,-3.75
2022-12-17T20:55:30.968Z,-3.74
2022-12-17T21:00:34.934Z,-3.71
2022-12-17T21:05:39.041Z,-3.66
2022-12-17T21:10:42.374Z,-3.61
2022-12-17T21:15:50.357Z,-3.54
2022-12-17T21:21:06.403Z,-3.48
2022-12-17T21:26:15.963Z,-3.43
2022-12-17T21:31:24.640Z,-3.33
2022-12-17T21:36:33.107Z,-3.25
2022-12-17T21:41:40.342Z,-3.22
2022-12-17T21:46:50.068Z,-3.23
2022-12-17T21:51:54.325Z,-3.25
2022-12-17T21:56:57.850Z,-3.25
2022-12-17T22:02:01.951Z,-3.19
2022-12-17T22:07:07.570Z,-3.16
2022-12-17T22:12:36.855Z,-3.13
2022-12-17T22:17:42.929Z,-3.17
2022-12-17T22:22:47.060Z,-3.20
2022-12-17T22:27:51.192Z,-3.32
2022-12-17T22:33:00.570Z,-3.40
2022-12-17T22:40:41.420Z,-3.45
2022-12-17T22:44:41.006Z,-3.49
2022-12-17T22:48:55.534Z,-3.48
2022-12-17T22:54:02.241Z,-3.44
2022-12-17T22:59:06.245Z,-3.43
2022-12-17T23:04:13.071Z,-3.43
2022-12-17T23:09:19.678Z,-3.40
2022-12-17T23:14:23.141Z,-3.44
2022-12-17T23:19:26.763Z,-3.51
2022-12-17T23:24:30.173Z,-3.50
2022-12-17T23:29:35.943Z,-3.58
2022-12-17T23:34:39.252Z,-3.64
2022-12-17T23:39:42.870Z,-3.64
2022-12-17T23:44:46.184Z,-3.69
2022-12-17T23:49:49.633Z,-3.70
2022-12-17T23:54:53.120Z,-3.62
2022-12-17T23:59:56.522Z,-3.64
